Terminal Aerodrome Forecast
Issued by NWS

Home | Current Version | Previous Version | Text Only | Print | Product List | Glossary On
Versions: 1 2 3 4 5 6 7 8 9 10 11 12 13 14 15 16
000
FTUS46 KLOX 211127
TAFPRB
TAF
KPRB 211127Z 2112/2212 VRB03KT P6SM OVC008
     FM211700 22008KT P6SM SKC
     FM212100 22015KT P6SM SKC
     FM220200 20008KT P6SM SKC
     FM220600 VRB03KT P6SM SKC
     FM221100 VRB03KT P6SM OVC008=

USA.gov is the U.S. government's official web portal to all federal, state and local government web resources and services.